sensor_id;sensor_type;location;lat;lon;timestamp;pressure;altitude;pressure_sealevel;temperature
20103;BMP180;10210;52.284;9.892;2022-09-25T00:00:32;100251.00;;;18.60
20103;BMP180;10210;52.284;9.892;2022-09-25T00:02:57;100260.00;;;18.60
20103;BMP180;10210;52.284;9.892;2022-09-25T00:05:24;100251.00;;;18.60
20103;BMP180;10210;52.284;9.892;2022-09-25T00:07:50;100240.00;;;18.50
20103;BMP180;10210;52.284;9.892;2022-09-25T00:10:16;100250.00;;;18.50
20103;BMP180;10210;52.284;9.892;2022-09-25T00:12:42;100245.00;;;18.50
20103;BMP180;10210;52.284;9.892;2022-09-25T00:15:09;100234.00;;;18.40
20103;BMP180;10210;52.284;9.892;2022-09-25T00:17:35;100244.00;;;18.40
20103;BMP180;10210;52.284;9.892;2022-09-25T00:20:01;100231.00;;;18.40
20103;BMP180;10210;52.284;9.892;2022-09-25T00:22:27;100242.00;;;18.40
20103;BMP180;10210;52.284;9.892;2022-09-25T00:24:54;100233.00;;;18.40
20103;BMP180;10210;52.284;9.892;2022-09-25T00:27:20;100230.00;;;18.30
20103;BMP180;10210;52.284;9.892;2022-09-25T00:29:46;100229.00;;;18.30
20103;BMP180;10210;52.284;9.892;2022-09-25T00:32:13;100236.00;;;18.30
20103;BMP180;10210;52.284;9.892;2022-09-25T00:34:39;100236.00;;;18.30
20103;BMP180;10210;52.284;9.892;2022-09-25T00:37:06;100233.00;;;18.30
20103;BMP180;10210;52.284;9.892;2022-09-25T00:39:32;100239.00;;;18.30
20103;BMP180;10210;52.284;9.892;2022-09-25T00:41:59;100239.00;;;18.30
20103;BMP180;10210;52.284;9.892;2022-09-25T00:52:54;100228.00;;;18.10
20103;BMP180;10210;52.284;9.892;2022-09-25T00:55:21;100243.00;;;18.00
20103;BMP180;10210;52.284;9.892;2022-09-25T00:57:53;100234.00;;;18.00
20103;BMP180;10210;52.284;9.892;2022-09-25T01:00:20;100238.00;;;17.90
20103;BMP180;10210;52.284;9.892;2022-09-25T01:02:52;100237.00;;;17.90
20103;BMP180;10210;52.284;9.892;2022-09-25T01:05:27;100231.00;;;17.90
20103;BMP180;10210;52.284;9.892;2022-09-25T01:07:57;100239.00;;;17.90
20103;BMP180;10210;52.284;9.892;2022-09-25T01:10:24;100240.00;;;17.90
20103;BMP180;10210;52.284;9.892;2022-09-25T01:12:51;100237.00;;;17.80
20103;BMP180;10210;52.284;9.892;2022-09-25T01:15:23;100234.00;;;17.80
20103;BMP180;10210;52.284;9.892;2022-09-25T01:18:36;100244.00;;;17.80
20103;BMP180;10210;52.284;9.892;2022-09-25T01:21:08;100239.00;;;17.80
20103;BMP180;10210;52.284;9.892;2022-09-25T01:27:05;100234.00;;;17.70
20103;BMP180;10210;52.284;9.892;2022-09-25T01:30:05;100238.00;;;17.70
20103;BMP180;10210;52.284;9.892;2022-09-25T01:32:41;100234.00;;;17.70
20103;BMP180;10210;52.284;9.892;2022-09-25T01:35:32;100244.00;;;17.70
20103;BMP180;10210;52.284;9.892;2022-09-25T01:38:33;100244.00;;;17.60
20103;BMP180;10210;52.284;9.892;2022-09-25T01:44:06;100249.00;;;17.60
20103;BMP180;10210;52.284;9.892;2022-09-25T01:46:42;100252.00;;;17.60
20103;BMP180;10210;52.284;9.892;2022-09-25T01:49:31;100239.00;;;17.60
20103;BMP180;10210;52.284;9.892;2022-09-25T01:52:01;100249.00;;;17.60
20103;BMP180;10210;52.284;9.892;2022-09-25T01:54:40;100240.00;;;17.50
20103;BMP180;10210;52.284;9.892;2022-09-25T01:57:23;100240.00;;;17.50
20103;BMP180;10210;52.284;9.892;2022-09-25T01:59:59;100244.00;;;17.50
20103;BMP180;10210;52.284;9.892;2022-09-25T02:02:32;100242.00;;;17.60
20103;BMP180;10210;52.284;9.892;2022-09-25T02:05:09;100241.00;;;17.60
20103;BMP180;10210;52.284;9.892;2022-09-25T02:07:44;100238.00;;;17.60
20103;BMP180;10210;52.284;9.892;2022-09-25T02:10:35;100242.00;;;17.50
20103;BMP180;10210;52.284;9.892;2022-09-25T02:13:13;100240.00;;;17.60
20103;BMP180;10210;52.284;9.892;2022-09-25T02:15:47;100240.00;;;17.60
20103;BMP180;10210;52.284;9.892;2022-09-25T02:18:17;100229.00;;;17.60
20103;BMP180;10210;52.284;9.892;2022-09-25T02:21:42;100225.00;;;17.50
20103;BMP180;10210;52.284;9.892;2022-09-25T02:24:28;100227.00;;;17.50
20103;BMP180;10210;52.284;9.892;2022-09-25T02:26:55;100233.00;;;17.50
20103;BMP180;10210;52.284;9.892;2022-09-25T02:29:21;100227.00;;;17.50
20103;BMP180;10210;52.284;9.892;2022-09-25T02:31:54;100236.00;;;17.50
20103;BMP180;10210;52.284;9.892;2022-09-25T02:34:24;100235.00;;;17.50
20103;BMP180;10210;52.284;9.892;2022-09-25T02:36:50;100239.00;;;17.50
20103;BMP180;10210;52.284;9.892;2022-09-25T02:39:21;100247.00;;;17.50
20103;BMP180;10210;52.284;9.892;2022-09-25T02:42:21;100241.00;;;17.40
20103;BMP180;10210;52.284;9.892;2022-09-25T02:48:29;100242.00;;;17.30
20103;BMP180;10210;52.284;9.892;2022-09-25T02:54:04;100241.00;;;17.30
20103;BMP180;10210;52.284;9.892;2022-09-25T02:57:03;100234.00;;;17.30
20103;BMP180;10210;52.284;9.892;2022-09-25T02:59:44;100237.00;;;17.30
20103;BMP180;10210;52.284;9.892;2022-09-25T03:02:14;100229.00;;;17.30
20103;BMP180;10210;52.284;9.892;2022-09-25T03:04:42;100228.00;;;17.30
20103;BMP180;10210;52.284;9.892;2022-09-25T03:07:08;100228.00;;;17.30
20103;BMP180;10210;52.284;9.892;2022-09-25T03:09:38;100226.00;;;17.30
20103;BMP180;10210;52.284;9.892;2022-09-25T03:12:04;100229.00;;;17.30
20103;BMP180;10210;52.284;9.892;2022-09-25T03:14:31;100225.00;;;17.30
20103;BMP180;10210;52.284;9.892;2022-09-25T03:17:01;100226.00;;;17.30
20103;BMP180;10210;52.284;9.892;2022-09-25T03:19:29;100222.00;;;17.30
20103;BMP180;10210;52.284;9.892;2022-09-25T03:21:55;100224.00;;;17.30
20103;BMP180;10210;52.284;9.892;2022-09-25T03:24:21;100228.00;;;17.30
20103;BMP180;10210;52.284;9.892;2022-09-25T03:26:47;100225.00;;;17.30
20103;BMP180;10210;52.284;9.892;2022-09-25T03:29:14;100229.00;;;17.30
20103;BMP180;10210;52.284;9.892;2022-09-25T03:31:42;100228.00;;;17.30
20103;BMP180;10210;52.284;9.892;2022-09-25T03:34:12;100224.00;;;17.30
20103;BMP180;10210;52.284;9.892;2022-09-25T03:36:38;100225.00;;;17.20
20103;BMP180;10210;52.284;9.892;2022-09-25T03:39:04;100228.00;;;17.20
20103;BMP180;10210;52.284;9.892;2022-09-25T03:41:33;100226.00;;;17.20
20103;BMP180;10210;52.284;9.892;2022-09-25T03:43:59;100224.00;;;17.20
20103;BMP180;10210;52.284;9.892;2022-09-25T03:46:32;100222.00;;;17.10
20103;BMP180;10210;52.284;9.892;2022-09-25T03:48:59;100223.00;;;17.10
20103;BMP180;10210;52.284;9.892;2022-09-25T03:51:27;100228.00;;;17.10
20103;BMP180;10210;52.284;9.892;2022-09-25T03:53:54;100236.00;;;17.20
20103;BMP180;10210;52.284;9.892;2022-09-25T03:56:23;100230.00;;;17.10
20103;BMP180;10210;52.284;9.892;2022-09-25T03:58:52;100224.00;;;17.10
20103;BMP180;10210;52.284;9.892;2022-09-25T04:01:18;100227.00;;;17.10
20103;BMP180;10210;52.284;9.892;2022-09-25T04:03:46;100222.00;;;17.20
20103;BMP180;10210;52.284;9.892;2022-09-25T04:06:14;100218.00;;;17.20
20103;BMP180;10210;52.284;9.892;2022-09-25T04:08:44;100223.00;;;17.20
20103;BMP180;10210;52.284;9.892;2022-09-25T04:11:10;100225.00;;;17.20
20103;BMP180;10210;52.284;9.892;2022-09-25T04:13:36;100217.00;;;17.20
20103;BMP180;10210;52.284;9.892;2022-09-25T04:16:05;100217.00;;;17.20
20103;BMP180;10210;52.284;9.892;2022-09-25T04:18:31;100213.00;;;17.20
20103;BMP180;10210;52.284;9.892;2022-09-25T04:20:59;100209.00;;;17.10
20103;BMP180;10210;52.284;9.892;2022-09-25T04:23:25;100211.00;;;17.20
20103;BMP180;10210;52.284;9.892;2022-09-25T04:25:51;100208.00;;;17.20
20103;BMP180;10210;52.284;9.892;2022-09-25T04:28:17;100208.00;;;17.20
20103;BMP180;10210;52.284;9.892;2022-09-25T04:30:43;100217.00;;;17.20
20103;BMP180;10210;52.284;9.892;2022-09-25T04:33:09;100215.00;;;17.20
20103;BMP180;10210;52.284;9.892;2022-09-25T04:35:54;100221.00;;;17.20
20103;BMP180;10210;52.284;9.892;2022-09-25T04:38:21;100214.00;;;17.20
20103;BMP180;10210;52.284;9.892;2022-09-25T04:40:47;100214.00;;;17.20
20103;BMP180;10210;52.284;9.892;2022-09-25T04:43:13;100213.00;;;17.20
20103;BMP180;10210;52.284;9.892;2022-09-25T04:45:38;100207.00;;;17.20
20103;BMP180;10210;52.284;9.892;2022-09-25T04:48:04;100214.00;;;17.20
20103;BMP180;10210;52.284;9.892;2022-09-25T04:50:31;100208.00;;;17.20
20103;BMP180;10210;52.284;9.892;2022-09-25T04:52:58;100210.00;;;17.20
20103;BMP180;10210;52.284;9.892;2022-09-25T04:55:26;100209.00;;;17.20
20103;BMP180;10210;52.284;9.892;2022-09-25T04:57:57;100206.00;;;17.20
20103;BMP180;10210;52.284;9.892;2022-09-25T05:00:30;100211.00;;;17.20
20103;BMP180;10210;52.284;9.892;2022-09-25T05:02:57;100214.00;;;17.20
20103;BMP180;10210;52.284;9.892;2022-09-25T05:05:24;100210.00;;;17.20
20103;BMP180;10210;52.284;9.892;2022-09-25T05:07:58;100210.00;;;17.20
20103;BMP180;10210;52.284;9.892;2022-09-25T05:10:28;100216.00;;;17.20
20103;BMP180;10210;52.284;9.892;2022-09-25T05:12:56;100220.00;;;17.30
20103;BMP180;10210;52.284;9.892;2022-09-25T05:15:26;100221.00;;;17.30
20103;BMP180;10210;52.284;9.892;2022-09-25T05:18:21;100225.00;;;17.30
20103;BMP180;10210;52.284;9.892;2022-09-25T05:20:49;100223.00;;;17.30
20103;BMP180;10210;52.284;9.892;2022-09-25T05:23:16;100217.00;;;17.30
20103;BMP180;10210;52.284;9.892;2022-09-25T05:25:42;100223.00;;;17.30
20103;BMP180;10210;52.284;9.892;2022-09-25T05:28:09;100222.00;;;17.30
20103;BMP180;10210;52.284;9.892;2022-09-25T05:30:36;100217.00;;;17.30
20103;BMP180;10210;52.284;9.892;2022-09-25T05:33:03;100221.00;;;17.30
20103;BMP180;10210;52.284;9.892;2022-09-25T05:35:31;100228.00;;;17.30
20103;BMP180;10210;52.284;9.892;2022-09-25T05:37:57;100217.00;;;17.30
20103;BMP180;10210;52.284;9.892;2022-09-25T05:40:24;100215.00;;;17.30
20103;BMP180;10210;52.284;9.892;2022-09-25T05:42:51;100214.00;;;17.30
20103;BMP180;10210;52.284;9.892;2022-09-25T05:45:19;100214.00;;;17.30
20103;BMP180;10210;52.284;9.892;2022-09-25T05:47:45;100214.00;;;17.20
20103;BMP180;10210;52.284;9.892;2022-09-25T05:50:14;100220.00;;;17.20
20103;BMP180;10210;52.284;9.892;2022-09-25T05:52:40;100215.00;;;17.20
20103;BMP180;10210;52.284;9.892;2022-09-25T05:55:07;100219.00;;;17.20
20103;BMP180;10210;52.284;9.892;2022-09-25T05:57:35;100217.00;;;17.20
20103;BMP180;10210;52.284;9.892;2022-09-25T06:00:07;100216.00;;;17.20
20103;BMP180;10210;52.284;9.892;2022-09-25T06:02:34;100218.00;;;17.20
20103;BMP180;10210;52.284;9.892;2022-09-25T06:05:00;100225.00;;;17.20
20103;BMP180;10210;52.284;9.892;2022-09-25T06:07:26;100218.00;;;17.20
20103;BMP180;10210;52.284;9.892;2022-09-25T06:09:51;100220.00;;;17.20
20103;BMP180;10210;52.284;9.892;2022-09-25T06:12:17;100218.00;;;17.20
20103;BMP180;10210;52.284;9.892;2022-09-25T06:14:43;100215.00;;;17.20
20103;BMP180;10210;52.284;9.892;2022-09-25T06:17:11;100215.00;;;17.20
20103;BMP180;10210;52.284;9.892;2022-09-25T06:19:36;100212.00;;;17.20
20103;BMP180;10210;52.284;9.892;2022-09-25T06:22:02;100209.00;;;17.20
20103;BMP180;10210;52.284;9.892;2022-09-25T06:24:28;100212.00;;;17.20
20103;BMP180;10210;52.284;9.892;2022-09-25T06:26:53;100216.00;;;17.10
20103;BMP180;10210;52.284;9.892;2022-09-25T06:29:19;100210.00;;;17.10
20103;BMP180;10210;52.284;9.892;2022-09-25T06:31:44;100217.00;;;17.10
20103;BMP180;10210;52.284;9.892;2022-09-25T06:34:10;100215.00;;;17.10
20103;BMP180;10210;52.284;9.892;2022-09-25T06:36:37;100217.00;;;17.10
20103;BMP180;10210;52.284;9.892;2022-09-25T06:39:03;100212.00;;;17.10
20103;BMP180;10210;52.284;9.892;2022-09-25T06:41:29;100215.00;;;17.10
20103;BMP180;10210;52.284;9.892;2022-09-25T06:43:55;100223.00;;;17.10
20103;BMP180;10210;52.284;9.892;2022-09-25T06:46:21;100214.00;;;17.20
20103;BMP180;10210;52.284;9.892;2022-09-25T06:48:51;100214.00;;;17.20
20103;BMP180;10210;52.284;9.892;2022-09-25T06:51:19;100211.00;;;17.20
20103;BMP180;10210;52.284;9.892;2022-09-25T06:53:45;100212.00;;;17.20
20103;BMP180;10210;52.284;9.892;2022-09-25T06:56:11;100214.00;;;17.20
20103;BMP180;10210;52.284;9.892;2022-09-25T06:58:37;100208.00;;;17.20
20103;BMP180;10210;52.284;9.892;2022-09-25T07:01:03;100211.00;;;17.20
20103;BMP180;10210;52.284;9.892;2022-09-25T07:03:29;100210.00;;;17.20
20103;BMP180;10210;52.284;9.892;2022-09-25T07:06:19;100214.00;;;17.20
20103;BMP180;10210;52.284;9.892;2022-09-25T07:08:46;100220.00;;;17.20
20103;BMP180;10210;52.284;9.892;2022-09-25T07:11:20;100220.00;;;17.20
20103;BMP180;10210;52.284;9.892;2022-09-25T07:13:47;100217.00;;;17.20
20103;BMP180;10210;52.284;9.892;2022-09-25T07:16:21;100211.00;;;17.20
20103;BMP180;10210;52.284;9.892;2022-09-25T07:18:48;100219.00;;;17.20
20103;BMP180;10210;52.284;9.892;2022-09-25T07:21:17;100213.00;;;17.20
20103;BMP180;10210;52.284;9.892;2022-09-25T07:23:45;100227.00;;;17.30
20103;BMP180;10210;52.284;9.892;2022-09-25T07:26:22;100221.00;;;17.30
20103;BMP180;10210;52.284;9.892;2022-09-25T07:28:58;100224.00;;;17.30
20103;BMP180;10210;52.284;9.892;2022-09-25T07:31:30;100223.00;;;17.30
20103;BMP180;10210;52.284;9.892;2022-09-25T07:33:59;100223.00;;;17.30
20103;BMP180;10210;52.284;9.892;2022-09-25T07:36:27;100232.00;;;17.30
20103;BMP180;10210;52.284;9.892;2022-09-25T07:38:53;100237.00;;;17.40
20103;BMP180;10210;52.284;9.892;2022-09-25T07:41:21;100236.00;;;17.40
20103;BMP180;10210;52.284;9.892;2022-09-25T07:43:54;100236.00;;;17.40
20103;BMP180;10210;52.284;9.892;2022-09-25T07:46:27;100232.00;;;17.40
20103;BMP180;10210;52.284;9.892;2022-09-25T07:48:53;100228.00;;;17.40
20103;BMP180;10210;52.284;9.892;2022-09-25T07:51:19;100227.00;;;17.40
20103;BMP180;10210;52.284;9.892;2022-09-25T07:53:46;100230.00;;;17.40
20103;BMP180;10210;52.284;9.892;2022-09-25T07:56:12;100219.00;;;17.50
20103;BMP180;10210;52.284;9.892;2022-09-25T07:58:39;100229.00;;;17.40
20103;BMP180;10210;52.284;9.892;2022-09-25T08:01:09;100230.00;;;17.50
20103;BMP180;10210;52.284;9.892;2022-09-25T08:03:35;100245.00;;;17.50
20103;BMP180;10210;52.284;9.892;2022-09-25T08:06:05;100239.00;;;17.50
20103;BMP180;10210;52.284;9.892;2022-09-25T08:08:33;100233.00;;;17.50
20103;BMP180;10210;52.284;9.892;2022-09-25T08:11:01;100242.00;;;17.50
20103;BMP180;10210;52.284;9.892;2022-09-25T08:13:28;100241.00;;;17.50
20103;BMP180;10210;52.284;9.892;2022-09-25T08:15:54;100252.00;;;17.50
20103;BMP180;10210;52.284;9.892;2022-09-25T08:18:21;100249.00;;;17.60
20103;BMP180;10210;52.284;9.892;2022-09-25T08:20:46;100249.00;;;17.60
20103;BMP180;10210;52.284;9.892;2022-09-25T08:23:12;100248.00;;;17.50
20103;BMP180;10210;52.284;9.892;2022-09-25T08:25:37;100254.00;;;17.50
20103;BMP180;10210;52.284;9.892;2022-09-25T08:28:03;100256.00;;;17.50
20103;BMP180;10210;52.284;9.892;2022-09-25T08:30:29;100262.00;;;17.50
20103;BMP180;10210;52.284;9.892;2022-09-25T08:32:54;100258.00;;;17.50
20103;BMP180;10210;52.284;9.892;2022-09-25T08:35:20;100258.00;;;17.50
20103;BMP180;10210;52.284;9.892;2022-09-25T08:37:46;100260.00;;;17.50
20103;BMP180;10210;52.284;9.892;2022-09-25T08:40:27;100259.00;;;17.50
20103;BMP180;10210;52.284;9.892;2022-09-25T08:42:56;100259.00;;;17.50
20103;BMP180;10210;52.284;9.892;2022-09-25T08:45:32;100249.00;;;17.40
20103;BMP180;10210;52.284;9.892;2022-09-25T08:51:29;100262.00;;;17.40
20103;BMP180;10210;52.284;9.892;2022-09-25T08:53:57;100255.00;;;17.40
20103;BMP180;10210;52.284;9.892;2022-09-25T08:56:27;100264.00;;;17.40
20103;BMP180;10210;52.284;9.892;2022-09-25T08:59:29;100261.00;;;17.30
20103;BMP180;10210;52.284;9.892;2022-09-25T09:02:00;100265.00;;;17.40
20103;BMP180;10210;52.284;9.892;2022-09-25T09:04:37;100262.00;;;17.40
20103;BMP180;10210;52.284;9.892;2022-09-25T09:07:21;100257.00;;;17.30
20103;BMP180;10210;52.284;9.892;2022-09-25T09:12:45;100268.00;;;17.30
20103;BMP180;10210;52.284;9.892;2022-09-25T09:15:36;100258.00;;;17.30
20103;BMP180;10210;52.284;9.892;2022-09-25T09:18:25;100265.00;;;17.30
20103;BMP180;10210;52.284;9.892;2022-09-25T09:23:38;100267.00;;;17.40
20103;BMP180;10210;52.284;9.892;2022-09-25T09:26:52;100260.00;;;17.30
20103;BMP180;10210;52.284;9.892;2022-09-25T09:35:27;100257.00;;;17.40
20103;BMP180;10210;52.284;9.892;2022-09-25T09:41:06;100255.00;;;17.40
20103;BMP180;10210;52.284;9.892;2022-09-25T09:44:02;100251.00;;;17.40
20103;BMP180;10210;52.284;9.892;2022-09-25T09:47:13;100256.00;;;17.40
20103;BMP180;10210;52.284;9.892;2022-09-25T09:52:21;100262.00;;;17.50
20103;BMP180;10210;52.284;9.892;2022-09-25T09:55:04;100260.00;;;17.50
20103;BMP180;10210;52.284;9.892;2022-09-25T09:57:51;100264.00;;;17.60
20103;BMP180;10210;52.284;9.892;2022-09-25T10:00:20;100259.00;;;17.60
20103;BMP180;10210;52.284;9.892;2022-09-25T10:03:31;100258.00;;;17.50
20103;BMP180;10210;52.284;9.892;2022-09-25T10:06:02;100250.00;;;17.60
20103;BMP180;10210;52.284;9.892;2022-09-25T10:08:29;100253.00;;;17.70
20103;BMP180;10210;52.284;9.892;2022-09-25T10:10:55;100261.00;;;17.70
20103;BMP180;10210;52.284;9.892;2022-09-25T10:13:31;100243.00;;;17.70
20103;BMP180;10210;52.284;9.892;2022-09-25T10:21:13;100254.00;;;17.80
20103;BMP180;10210;52.284;9.892;2022-09-25T10:23:56;100262.00;;;17.70
20103;BMP180;10210;52.284;9.892;2022-09-25T10:26:38;100252.00;;;17.70
20103;BMP180;10210;52.284;9.892;2022-09-25T10:29:26;100259.00;;;17.70
20103;BMP180;10210;52.284;9.892;2022-09-25T10:32:02;100261.00;;;17.80
20103;BMP180;10210;52.284;9.892;2022-09-25T10:34:29;100249.00;;;17.80
20103;BMP180;10210;52.284;9.892;2022-09-25T10:36:56;100258.00;;;17.80
20103;BMP180;10210;52.284;9.892;2022-09-25T10:39:36;100266.00;;;17.80
20103;BMP180;10210;52.284;9.892;2022-09-25T10:42:29;100258.00;;;17.80
20103;BMP180;10210;52.284;9.892;2022-09-25T10:44:57;100254.00;;;17.80
20103;BMP180;10210;52.284;9.892;2022-09-25T10:47:27;100257.00;;;17.80
20103;BMP180;10210;52.284;9.892;2022-09-25T10:50:23;100259.00;;;17.90
20103;BMP180;10210;52.284;9.892;2022-09-25T10:52:56;100257.00;;;17.90
20103;BMP180;10210;52.284;9.892;2022-09-25T10:55:32;100255.00;;;17.90
20103;BMP180;10210;52.284;9.892;2022-09-25T10:58:39;100250.00;;;17.90
20103;BMP180;10210;52.284;9.892;2022-09-25T11:01:08;100243.00;;;18.00
20103;BMP180;10210;52.284;9.892;2022-09-25T11:03:46;100243.00;;;18.00
20103;BMP180;10210;52.284;9.892;2022-09-25T11:06:29;100252.00;;;18.10
20103;BMP180;10210;52.284;9.892;2022-09-25T11:09:15;100267.00;;;18.10
20103;BMP180;10210;52.284;9.892;2022-09-25T11:11:44;100255.00;;;18.20
20103;BMP180;10210;52.284;9.892;2022-09-25T11:14:28;100245.00;;;18.20
20103;BMP180;10210;52.284;9.892;2022-09-25T11:16:59;100252.00;;;18.20
20103;BMP180;10210;52.284;9.892;2022-09-25T11:19:28;100250.00;;;18.20
20103;BMP180;10210;52.284;9.892;2022-09-25T11:22:32;100256.00;;;18.20
20103;BMP180;10210;52.284;9.892;2022-09-25T11:25:33;100253.00;;;18.20
20103;BMP180;10210;52.284;9.892;2022-09-25T11:28:57;100259.00;;;18.10
20103;BMP180;10210;52.284;9.892;2022-09-25T11:31:35;100245.00;;;18.20
20103;BMP180;10210;52.284;9.892;2022-09-25T11:34:33;100247.00;;;18.20
20103;BMP180;10210;52.284;9.892;2022-09-25T11:37:48;100244.00;;;18.20
20103;BMP180;10210;52.284;9.892;2022-09-25T11:40:39;100244.00;;;18.20
20103;BMP180;10210;52.284;9.892;2022-09-25T11:43:44;100244.00;;;18.20
20103;BMP180;10210;52.284;9.892;2022-09-25T11:49:25;100235.00;;;18.30
20103;BMP180;10210;52.284;9.892;2022-09-25T11:55:31;100228.00;;;18.20
20103;BMP180;10210;52.284;9.892;2022-09-25T12:00:56;100228.00;;;18.40
20103;BMP180;10210;52.284;9.892;2022-09-25T12:04:09;100219.00;;;18.30
20103;BMP180;10210;52.284;9.892;2022-09-25T12:07:14;100219.00;;;18.40
20103;BMP180;10210;52.284;9.892;2022-09-25T12:13:14;100216.00;;;18.60
20103;BMP180;10210;52.284;9.892;2022-09-25T12:16:05;100219.00;;;18.60
20103;BMP180;10210;52.284;9.892;2022-09-25T12:19:16;100220.00;;;18.70
20103;BMP180;10210;52.284;9.892;2022-09-25T12:25:59;100212.00;;;18.80
20103;BMP180;10210;52.284;9.892;2022-09-25T12:28:04;100206.00;;;18.90
20103;BMP180;10210;52.284;9.892;2022-09-25T12:36:42;100194.00;;;19.10
20103;BMP180;10210;52.284;9.892;2022-09-25T12:39:33;100194.00;;;19.20
20103;BMP180;10210;52.284;9.892;2022-09-25T12:42:10;100198.00;;;19.30
20103;BMP180;10210;52.284;9.892;2022-09-25T12:44:54;100184.00;;;19.50
20103;BMP180;10210;52.284;9.892;2022-09-25T12:47:41;100173.00;;;19.60
20103;BMP180;10210;52.284;9.892;2022-09-25T12:50:32;100181.00;;;19.70
20103;BMP180;10210;52.284;9.892;2022-09-25T12:53:49;100171.00;;;19.80
20103;BMP180;10210;52.284;9.892;2022-09-25T12:56:55;100184.00;;;19.90
20103;BMP180;10210;52.284;9.892;2022-09-25T12:59:41;100180.00;;;20.10
20103;BMP180;10210;52.284;9.892;2022-09-25T13:02:52;100172.00;;;20.10
20103;BMP180;10210;52.284;9.892;2022-09-25T13:05:36;100174.00;;;20.20
20103;BMP180;10210;52.284;9.892;2022-09-25T13:09:11;100167.00;;;20.10
20103;BMP180;10210;52.284;9.892;2022-09-25T13:11:57;100164.00;;;20.20
20103;BMP180;10210;52.284;9.892;2022-09-25T13:14:33;100164.00;;;20.20
20103;BMP180;10210;52.284;9.892;2022-09-25T13:17:01;100158.00;;;20.20
20103;BMP180;10210;52.284;9.892;2022-09-25T13:19:30;100167.00;;;20.10
20103;BMP180;10210;52.284;9.892;2022-09-25T13:22:21;100161.00;;;20.10
20103;BMP180;10210;52.284;9.892;2022-09-25T13:25:11;100158.00;;;20.10
20103;BMP180;10210;52.284;9.892;2022-09-25T13:27:44;100158.00;;;20.20
20103;BMP180;10210;52.284;9.892;2022-09-25T13:30:26;100152.00;;;20.20
20103;BMP180;10210;52.284;9.892;2022-09-25T13:32:56;100147.00;;;20.30
20103;BMP180;10210;52.284;9.892;2022-09-25T13:35:26;100151.00;;;20.40
20103;BMP180;10210;52.284;9.892;2022-09-25T13:38:09;100145.00;;;20.50
20103;BMP180;10210;52.284;9.892;2022-09-25T13:40:38;100153.00;;;20.60
20103;BMP180;10210;52.284;9.892;2022-09-25T13:45:47;100146.00;;;20.80
20103;BMP180;10210;52.284;9.892;2022-09-25T13:48:33;100147.00;;;20.80
20103;BMP180;10210;52.284;9.892;2022-09-25T13:51:33;100156.00;;;20.90
20103;BMP180;10210;52.284;9.892;2022-09-25T13:54:24;100148.00;;;21.00
20103;BMP180;10210;52.284;9.892;2022-09-25T13:56:51;100151.00;;;21.10
20103;BMP180;10210;52.284;9.892;2022-09-25T13:59:24;100145.00;;;21.10
20103;BMP180;10210;52.284;9.892;2022-09-25T14:02:42;100142.00;;;21.10
20103;BMP180;10210;52.284;9.892;2022-09-25T14:05:16;100142.00;;;21.20
20103;BMP180;10210;52.284;9.892;2022-09-25T14:07:43;100136.00;;;21.30
20103;BMP180;10210;52.284;9.892;2022-09-25T14:10:10;100143.00;;;21.30
20103;BMP180;10210;52.284;9.892;2022-09-25T14:12:47;100129.00;;;21.40
20103;BMP180;10210;52.284;9.892;2022-09-25T14:15:37;100133.00;;;21.40
20103;BMP180;10210;52.284;9.892;2022-09-25T14:18:14;100125.00;;;21.60
20103;BMP180;10210;52.284;9.892;2022-09-25T14:20:47;100135.00;;;21.60
20103;BMP180;10210;52.284;9.892;2022-09-25T14:25:45;100137.00;;;21.70
20103;BMP180;10210;52.284;9.892;2022-09-25T14:28:32;100127.00;;;21.60
20103;BMP180;10210;52.284;9.892;2022-09-25T14:37:51;100116.00;;;21.40
20103;BMP180;10210;52.284;9.892;2022-09-25T14:40:22;100119.00;;;21.40
20103;BMP180;10210;52.284;9.892;2022-09-25T14:46:15;100126.00;;;21.30
20103;BMP180;10210;52.284;9.892;2022-09-25T14:49:01;100123.00;;;21.20
20103;BMP180;10210;52.284;9.892;2022-09-25T14:51:39;100101.00;;;21.20
20103;BMP180;10210;52.284;9.892;2022-09-25T14:54:12;100104.00;;;21.20
20103;BMP180;10210;52.284;9.892;2022-09-25T14:56:40;100099.00;;;21.10
20103;BMP180;10210;52.284;9.892;2022-09-25T14:59:17;100100.00;;;21.10
20103;BMP180;10210;52.284;9.892;2022-09-25T15:01:48;100110.00;;;21.10
20103;BMP180;10210;52.284;9.892;2022-09-25T15:04:32;100105.00;;;21.00
20103;BMP180;10210;52.284;9.892;2022-09-25T15:07:02;100106.00;;;21.00
20103;BMP180;10210;52.284;9.892;2022-09-25T15:09:40;100105.00;;;20.90
20103;BMP180;10210;52.284;9.892;2022-09-25T15:12:27;100107.00;;;20.90
20103;BMP180;10210;52.284;9.892;2022-09-25T15:17:31;100113.00;;;20.80
20103;BMP180;10210;52.284;9.892;2022-09-25T15:20:05;100116.00;;;20.80
20103;BMP180;10210;52.284;9.892;2022-09-25T15:22:36;100112.00;;;20.70
20103;BMP180;10210;52.284;9.892;2022-09-25T15:25:06;100109.00;;;20.70
20103;BMP180;10210;52.284;9.892;2022-09-25T15:27:34;100106.00;;;20.60
20103;BMP180;10210;52.284;9.892;2022-09-25T15:30:15;100107.00;;;20.60
20103;BMP180;10210;52.284;9.892;2022-09-25T15:32:41;100111.00;;;20.60
20103;BMP180;10210;52.284;9.892;2022-09-25T15:35:21;100106.00;;;20.50
20103;BMP180;10210;52.284;9.892;2022-09-25T15:37:47;100103.00;;;20.40
20103;BMP180;10210;52.284;9.892;2022-09-25T15:42:47;100103.00;;;20.40
20103;BMP180;10210;52.284;9.892;2022-09-25T15:48:00;100109.00;;;20.30
20103;BMP180;10210;52.284;9.892;2022-09-25T15:50:28;100112.00;;;20.30
20103;BMP180;10210;52.284;9.892;2022-09-25T15:52:59;100110.00;;;20.30
20103;BMP180;10210;52.284;9.892;2022-09-25T15:55:28;100104.00;;;20.30
20103;BMP180;10210;52.284;9.892;2022-09-25T15:58:06;100105.00;;;20.30
20103;BMP180;10210;52.284;9.892;2022-09-25T16:00:35;100109.00;;;20.30
20103;BMP180;10210;52.284;9.892;2022-09-25T16:03:23;100107.00;;;20.30
20103;BMP180;10210;52.284;9.892;2022-09-25T16:06:16;100101.00;;;20.20
20103;BMP180;10210;52.284;9.892;2022-09-25T16:08:42;100100.00;;;20.20
20103;BMP180;10210;52.284;9.892;2022-09-25T16:13:43;100085.00;;;20.20